Terminal Aerodrome Forecast
Issued by NWS Cleveland, OH

Home | Current Version | Previous Version | Graphics & Text | Print | Product List | Glossary Off
Versions: 1 2 3 4 5 6 7 8 9 10 11 12 13 14 15 16 17

000
FTUS41 KCLE 281700
TAFYNG
TAF
KYNG 281732Z 2818/2918 35010KT P6SM SCT035
     FM290000 VRB03KT P6SM BKN250
      TEMPO 2909/2911 5SM BR
     FM291200 13005KT P6SM BKN100=

USA.gov is the U.S. government's official web portal to all federal, state and local government web resources and services.